Time;durP1;ratioP1;P1;durP2;ratioP2;P2;SDS_P1;SDS_P2;PMS_P1;PMS_P2;Temp;Humidity;BMP_temperature;BMP_pressure;BME280_temperature;BME280_humidity;BME280_pressure;Samples;Min_cycle;Max_cycle;Signal;HPM_P1;HPM_P2
2023/07/03 00:01:03;;;;;;;13.52;2.15;;;16.20;99.90;;;;;;5074393;28;20084;-77
2023/07/03 00:03:29;;;;;;;0.30;0.30;;;16.20;99.90;;;;;;5073318;28;20025;-77
2023/07/03 00:05:55;;;;;;;11.32;0.73;;;16.20;99.90;;;;;;5075296;28;20395;-78
2023/07/03 00:08:22;;;;;;;1.77;0.90;;;16.30;99.90;;;;;;5072347;28;20027;-75
2023/07/03 00:10:47;;;;;;;8.75;2.30;;;16.30;99.90;;;;;;5071194;28;20045;-78
2023/07/03 00:13:13;;;;;;;0.95;0.30;;;16.20;99.90;;;;;;5070743;28;20021;-78
2023/07/03 00:15:39;;;;;;;1.10;1.10;;;16.30;99.90;;;;;;5084565;28;20028;-77
2023/07/03 00:18:05;;;;;;;14.60;1.17;;;16.20;99.90;;;;;;5093086;28;20032;-77
2023/07/03 00:20:31;;;;;;;0.93;0.32;;;15.90;99.90;;;;;;5089211;28;20040;-77
2023/07/03 00:22:57;;;;;;;6.03;2.08;;;16.10;99.90;;;;;;5090656;28;20022;-78
2023/07/03 00:25:23;;;;;;;0.63;0.30;;;16.00;99.90;;;;;;5083575;28;20388;-78
2023/07/03 00:27:49;;;;;;;2.03;0.30;;;16.20;99.90;;;;;;5074052;28;20499;-78
2023/07/03 00:30:16;;;;;;;0.50;0.50;;;16.10;99.90;;;;;;5075029;28;20102;-78
2023/07/03 00:32:42;;;;;;;0.10;0.10;;;16.10;99.90;;;;;;5075160;28;20036;-78
2023/07/03 00:35:09;;;;;;;2.25;1.05;;;16.10;99.90;;;;;;5075137;28;20389;-78
2023/07/03 00:37:35;;;;;;;9.27;1.98;;;16.30;99.90;;;;;;5075064;28;20025;-78
2023/07/03 00:40:03;;;;;;;3.67;0.55;;;16.30;99.90;;;;;;5074869;28;20055;-77
2023/07/03 00:42:30;;;;;;;4.43;1.40;;;16.10;99.90;;;;;;5073277;28;20032;-77
2023/07/03 00:44:56;;;;;;;7.32;1.38;;;16.10;99.90;;;;;;5074827;28;20035;-77
2023/07/03 00:47:23;;;;;;;19.58;3.30;;;15.90;99.90;;;;;;5073243;28;20056;-77
2023/07/03 00:49:50;;;;;;;3.85;1.15;;;15.60;99.90;;;;;;5074713;28;20028;-77
2023/07/03 00:52:17;;;;;;;16.40;4.15;;;15.90;99.90;;;;;;5073506;28;20029;-77
2023/07/03 00:54:44;;;;;;;5.63;1.27;;;15.70;99.90;;;;;;5073613;28;20496;-77
2023/07/03 00:57:13;;;;;;;0.40;0.40;;;15.80;99.90;;;;;;5074315;28;20038;-78
2023/07/03 00:59:40;;;;;;;12.38;3.03;;;15.60;99.90;;;;;;5073446;28;20040;-77
2023/07/03 01:02:11;;;;;;;5.40;1.60;;;15.50;99.90;;;;;;5074360;28;20025;-77
2023/07/03 01:04:55;;;;;;;5.00;1.48;;;15.60;99.90;;;;;;5074792;28;20032;-77
2023/07/03 01:07:28;;;;;;;18.63;2.92;;;15.60;99.90;;;;;;5074300;28;20032;-77
2023/07/03 01:10:15;;;;;;;0.10;0.10;;;15.50;99.90;;;;;;5074502;28;20029;-77
2023/07/03 01:12:45;;;;;;;2.72;1.02;;;15.60;99.90;;;;;;5047785;28;20499;-77
2023/07/03 01:15:17;;;;;;;14.50;5.13;;;15.70;99.90;;;;;;5073167;28;20494;-77
2023/07/03 01:17:47;;;;;;;1.08;0.35;;;15.60;99.90;;;;;;5074385;28;20495;-77
2023/07/03 01:20:17;;;;;;;5.05;1.30;;;15.50;99.90;;;;;;5074345;28;20043;-78
2023/07/03 01:22:53;;;;;;;0.30;0.28;;;15.60;99.90;;;;;;5074213;28;20028;-78
2023/07/03 01:25:25;;;;;;;6.75;1.92;;;15.60;99.90;;;;;;5073927;28;20040;-77
2023/07/03 01:27:52;;;;;;;5.80;2.80;;;15.50;99.90;;;;;;5073811;28;20025;-77
2023/07/03 01:30:21;;;;;;;2.25;0.75;;;15.40;99.90;;;;;;5074270;28;20020;-77
2023/07/03 01:32:51;;;;;;;5.78;4.38;;;15.60;99.90;;;;;;5072715;28;20026;-77
2023/07/03 01:35:24;;;;;;;24.67;4.45;;;15.60;99.90;;;;;;5073107;28;20035;-77
2023/07/03 01:37:52;;;;;;;5.93;0.82;;;15.50;99.90;;;;;;5073701;28;20029;-77
2023/07/03 01:40:23;;;;;;;5.57;1.30;;;15.50;99.90;;;;;;5072576;28;20115;-77
2023/07/03 01:42:52;;;;;;;2.47;1.02;;;15.50;99.90;;;;;;5072077;28;20094;-78
2023/07/03 01:45:18;;;;;;;6.80;1.60;;;15.40;99.90;;;;;;5073665;28;20481;-77
2023/07/03 01:47:43;;;;;;;7.38;1.88;;;15.30;99.90;;;;;;5058397;28;20044;-77
2023/07/03 01:50:15;;;;;;;3.78;2.35;;;15.30;99.90;;;;;;5072405;28;20051;-77
2023/07/03 01:52:46;;;;;;;0.10;0.10;;;15.30;99.90;;;;;;5072240;28;20029;-78
2023/07/03 01:55:35;;;;;;;3.10;0.85;;;15.40;99.90;;;;;;5073224;28;20024;-77
2023/07/03 01:58:06;;;;;;;11.38;1.83;;;15.40;99.90;;;;;;5072009;28;20047;-78
2023/07/03 02:00:48;;;;;;;11.60;2.13;;;15.50;99.90;;;;;;5072032;28;20028;-78
2023/07/03 02:03:36;;;;;;;0.10;0.10;;;15.50;99.90;;;;;;5072003;28;20032;-77
2023/07/03 02:06:09;;;;;;;9.90;1.98;;;15.30;99.90;;;;;;5071959;28;20040;-77
2023/07/03 02:08:36;;;;;;;2.78;1.40;;;15.30;99.90;;;;;;5073249;28;20373;-77
2023/07/03 02:11:02;;;;;;;3.33;1.08;;;15.20;99.90;;;;;;5071514;28;20025;-78
2023/07/03 02:13:28;;;;;;;15.77;3.78;;;15.30;99.90;;;;;;5071787;28;20063;-78
2023/07/03 02:15:57;;;;;;;18.77;3.58;;;15.10;99.90;;;;;;5072021;28;20020;-77
2023/07/03 02:18:23;;;;;;;6.20;1.73;;;15.10;99.90;;;;;;5071665;28;20062;-78
2023/07/03 02:20:49;;;;;;;0.43;0.32;;;15.20;99.90;;;;;;5071965;28;20166;-77
2023/07/03 02:23:15;;;;;;;6.40;0.70;;;15.10;99.90;;;;;;5072996;28;20035;-77
2023/07/03 02:25:43;;;;;;;1.10;1.08;;;15.00;99.90;;;;;;5054730;28;20477;-77
2023/07/03 02:28:09;;;;;;;4.82;0.52;;;15.10;99.90;;;;;;5073110;28;20025;-77
2023/07/03 02:30:35;;;;;;;10.02;2.50;;;15.00;99.90;;;;;;5071702;28;20047;-77
2023/07/03 02:33:01;;;;;;;14.48;2.45;;;14.90;99.90;;;;;;5072899;28;20104;-77
2023/07/03 02:35:27;;;;;;;9.02;1.17;;;15.00;99.90;;;;;;5072153;28;20041;-77
2023/07/03 02:37:53;;;;;;;9.13;1.70;;;15.00;99.90;;;;;;5072796;28;20024;-77
2023/07/03 02:40:19;;;;;;;27.25;3.15;;;15.00;99.90;;;;;;5071254;28;20040;-78
2023/07/03 02:42:45;;;;;;;28.33;3.70;;;14.90;99.90;;;;;;5072886;28;20037;-78
2023/07/03 02:45:11;;;;;;;2.75;1.10;;;14.90;99.90;;;;;;5071240;28;20087;-78
2023/07/03 02:47:38;;;;;;;0.20;0.20;;;15.10;99.90;;;;;;5058273;28;20052;-77
2023/07/03 02:50:07;;;;;;;6.20;1.17;;;15.10;99.90;;;;;;5071028;28;20093;-77
2023/07/03 02:52:34;;;;;;;6.45;1.75;;;15.20;99.90;;;;;;5054960;28;20056;-77
2023/07/03 02:55:01;;;;;;;3.03;1.27;;;15.10;99.90;;;;;;5054300;28;20127;-78
2023/07/03 02:57:28;;;;;;;0.65;0.60;;;15.10;99.90;;;;;;5071615;28;20124;-77
2023/07/03 02:59:54;;;;;;;11.95;3.65;;;15.10;99.90;;;;;;5057104;28;20044;-78
2023/07/03 03:02:20;;;;;;;2.53;2.33;;;15.20;99.90;;;;;;5071214;28;20115;-77
2023/07/03 03:04:47;;;;;;;10.98;2.67;;;15.10;99.90;;;;;;5072435;28;20036;-77
2023/07/03 03:07:14;;;;;;;9.52;1.65;;;15.00;99.90;;;;;;5071182;28;20389;-77
2023/07/03 03:09:40;;;;;;;2.22;0.73;;;15.10;99.90;;;;;;5054289;28;20032;-77
2023/07/03 03:12:07;;;;;;;4.93;1.63;;;15.10;99.90;;;;;;5071099;28;20480;-77
2023/07/03 03:14:33;;;;;;;1.08;1.08;;;15.20;99.90;;;;;;5071328;28;20029;-77
2023/07/03 03:16:59;;;;;;;7.93;2.08;;;15.50;99.90;;;;;;5071175;28;20025;-77
2023/07/03 03:19:25;;;;;;;1.65;0.80;;;15.60;99.90;;;;;;5072346;28;20067;-77
2023/07/03 03:21:51;;;;;;;0.10;0.10;;;15.60;99.90;;;;;;5071135;28;20052;-77
2023/07/03 03:24:18;;;;;;;26.67;4.32;;;15.50;99.90;;;;;;5056456;28;20063;-77
2023/07/03 03:26:44;;;;;;;5.80;2.58;;;15.50;99.90;;;;;;5071126;28;20509;-77
2023/07/03 03:29:10;;;;;;;0.32;0.32;;;15.50;99.90;;;;;;5072408;28;20250;-78
2023/07/03 03:31:37;;;;;;;0.57;0.43;;;15.40;99.90;;;;;;5071195;28;20542;-77
2023/07/03 03:34:05;;;;;;;26.77;2.65;;;15.40;99.90;;;;;;5070809;28;20016;-77
2023/07/03 03:36:33;;;;;;;22.20;3.97;;;15.40;99.90;;;;;;5070501;28;20028;-77
2023/07/03 03:38:59;;;;;;;19.17;2.17;;;15.20;99.90;;;;;;5070965;28;20388;-78
2023/07/03 03:41:26;;;;;;;5.18;1.58;;;15.30;99.90;;;;;;5070348;28;20447;-78
2023/07/03 03:43:54;;;;;;;0.70;0.63;;;15.60;99.90;;;;;;5070268;28;20044;-78
2023/07/03 03:46:22;;;;;;;6.45;1.98;;;15.60;99.90;;;;;;5070376;28;20039;-78
2023/07/03 03:48:48;;;;;;;2.17;1.15;;;15.80;99.90;;;;;;5074299;28;20048;-77
2023/07/03 03:51:14;;;;;;;3.42;0.10;;;15.40;99.90;;;;;;5075473;28;20063;-77
2023/07/03 03:53:40;;;;;;;1.88;0.45;;;15.50;99.90;;;;;;5074537;28;20392;-77
2023/07/03 03:56:07;;;;;;;6.18;0.88;;;15.50;99.90;;;;;;5074518;28;20025;-77
2023/07/03 03:58:35;;;;;;;1.25;0.95;;;15.30;99.90;;;;;;5074160;28;20020;-77
2023/07/03 04:01:01;;;;;;;0.80;0.40;;;15.50;99.90;;;;;;5075585;28;20024;-77
2023/07/03 04:03:26;;;;;;;1.75;0.95;;;15.70;99.90;;;;;;5074129;28;20486;-77
2023/07/03 04:05:53;;;;;;;7.95;3.38;;;15.50;99.90;;;;;;5075137;28;20047;-77
2023/07/03 04:08:18;;;;;;;11.57;1.90;;;15.40;99.90;;;;;;5072563;28;20062;-77
2023/07/03 04:10:44;;;;;;;7.35;1.15;;;15.40;99.90;;;;;;5062763;28;20028;-77
2023/07/03 04:13:11;;;;;;;3.42;1.65;;;15.60;99.90;;;;;;5049983;28;20076;-77
2023/07/03 04:15:51;;;;;;;32.55;5.00;;;15.50;99.90;;;;;;5073167;28;20373;-77
2023/07/03 04:18:20;;;;;;;4.03;1.73;;;15.50;99.90;;;;;;5061502;28;20025;-78
2023/07/03 04:20:46;;;;;;;0.00;0.00;;;15.40;99.90;;;;;;5041315;28;20036;-77
2023/07/03 04:23:12;;;;;;;0.22;0.10;;;15.50;99.90;;;;;;5067211;28;20063;-77
2023/07/03 04:25:38;;;;;;;1.35;0.73;;;15.50;99.90;;;;;;5075141;28;20153;-77
2023/07/03 04:28:04;;;;;;;4.07;2.25;;;15.40;99.90;;;;;;5055280;28;20430;-77
2023/07/03 04:30:30;;;;;;;3.60;1.58;;;15.30;99.90;;;;;;5055202;28;20515;-77
2023/07/03 04:32:56;;;;;;;12.52;2.42;;;15.40;99.90;;;;;;5073217;28;20029;-78
2023/07/03 04:35:22;;;;;;;17.83;3.10;;;15.40;99.90;;;;;;5074981;28;20024;-77
2023/07/03 04:37:49;;;;;;;2.72;0.70;;;15.30;99.90;;;;;;5074961;28;20028;-78
2023/07/03 04:40:16;;;;;;;8.18;2.45;;;15.40;99.90;;;;;;5074946;28;20082;-78
2023/07/03 04:42:41;;;;;;;0.00;0.00;;;15.40;99.90;;;;;;5074964;28;20037;-77
2023/07/03 04:45:07;;;;;;;7.20;2.67;;;15.40;99.90;;;;;;5074663;28;20124;-78
2023/07/03 04:47:37;;;;;;;18.98;3.70;;;15.60;99.90;;;;;;5074162;28;20044;-77
2023/07/03 04:50:09;;;;;;;4.78;1.27;;;15.80;99.90;;;;;;5060240;28;20040;-78
2023/07/03 04:52:38;;;;;;;23.50;2.40;;;15.70;99.90;;;;;;5074880;28;20481;-78
2023/07/03 04:55:06;;;;;;;4.00;1.80;;;15.70;99.90;;;;;;5073518;28;20428;-77
2023/07/03 04:57:32;;;;;;;5.72;1.20;;;15.80;99.90;;;;;;5074628;28;20036;-78
2023/07/03 05:00:00;;;;;;;1.13;1.02;;;15.90;99.90;;;;;;5073973;28;20094;-77
2023/07/03 05:02:27;;;;;;;4.65;1.65;;;15.90;99.90;;;;;;5074348;28;20039;-78
2023/07/03 05:04:53;;;;;;;1.05;0.82;;;15.90;99.90;;;;;;5074395;28;20045;-78
2023/07/03 05:07:22;;;;;;;10.95;1.75;;;16.00;99.90;;;;;;5074454;28;20046;-78
2023/07/03 05:09:48;;;;;;;6.45;2.50;;;16.20;99.90;;;;;;5074301;28;20094;-77
2023/07/03 05:12:14;;;;;;;0.10;0.10;;;15.90;99.90;;;;;;5074297;28;20109;-77
2023/07/03 05:14:40;;;;;;;0.10;0.10;;;16.10;99.90;;;;;;5074470;28;20025;-78
2023/07/03 05:17:05;;;;;;;0.85;0.85;;;16.20;99.90;;;;;;5074335;28;20024;-77
2023/07/03 05:19:31;;;;;;;1.00;0.63;;;16.00;99.90;;;;;;5073853;28;20531;-77
2023/07/03 05:21:57;;;;;;;0.28;0.28;;;15.90;99.90;;;;;;5074187;28;20108;-77
2023/07/03 05:24:22;;;;;;;10.32;1.83;;;16.00;99.90;;;;;;5073907;28;20040;-78
2023/07/03 05:26:48;;;;;;;11.35;3.50;;;15.90;99.90;;;;;;5074022;28;20020;-78
2023/07/03 05:29:14;;;;;;;5.10;0.75;;;15.90;99.90;;;;;;5073929;28;20033;-77
2023/07/03 05:31:40;;;;;;;5.28;0.93;;;16.10;99.90;;;;;;5074146;28;20419;-77
2023/07/03 05:34:05;;;;;;;3.63;0.52;;;16.40;99.90;;;;;;5059713;28;20473;-77
2023/07/03 05:36:31;;;;;;;10.90;2.35;;;16.20;99.90;;;;;;5073891;28;20058;-77
2023/07/03 05:38:57;;;;;;;1.10;0.98;;;16.20;99.90;;;;;;5073748;28;20040;-77
2023/07/03 05:41:23;;;;;;;3.72;1.08;;;16.50;99.90;;;;;;5073555;28;20037;-77
2023/07/03 05:43:48;;;;;;;4.90;0.77;;;16.50;99.90;;;;;;5073649;28;20119;-77
2023/07/03 05:46:14;;;;;;;8.88;0.90;;;16.50;99.90;;;;;;5073715;28;20536;-76
2023/07/03 05:48:40;;;;;;;5.28;1.95;;;16.60;99.90;;;;;;5073087;28;20099;-75
2023/07/03 05:51:06;;;;;;;3.08;1.20;;;16.60;99.90;;;;;;5073815;28;20468;-76
2023/07/03 05:53:32;;;;;;;0.55;0.55;;;16.50;99.90;;;;;;5073607;28;20016;-77
2023/07/03 05:55:58;;;;;;;9.65;1.88;;;16.70;99.90;;;;;;5073541;28;20123;-77
2023/07/03 05:58:26;;;;;;;1.70;0.93;;;16.60;99.90;;;;;;5073369;28;20047;-77
2023/07/03 06:00:52;;;;;;;9.68;1.42;;;16.80;99.90;;;;;;5073112;28;20082;-77
2023/07/03 06:03:19;;;;;;;1.05;0.95;;;16.80;99.90;;;;;;5072797;28;20025;-78
2023/07/03 06:05:45;;;;;;;4.82;1.13;;;16.60;99.90;;;;;;5073362;28;20079;-77
2023/07/03 06:08:11;;;;;;;5.32;2.42;;;16.60;99.90;;;;;;5073276;28;20036;-77
2023/07/03 06:10:38;;;;;;;22.20;2.53;;;16.60;99.90;;;;;;5072157;28;20039;-77
2023/07/03 06:13:04;;;;;;;12.93;3.67;;;16.70;99.90;;;;;;5073306;28;20059;-76
2023/07/03 06:15:34;;;;;;;5.43;1.63;;;16.30;99.90;;;;;;5064819;28;20028;-77
2023/07/03 06:18:02;;;;;;;8.18;1.75;;;16.40;99.90;;;;;;5044456;28;20159;-77
2023/07/03 06:20:29;;;;;;;0.15;0.15;;;16.60;99.90;;;;;;5051894;28;20032;-78
2023/07/03 06:22:55;;;;;;;4.70;2.20;;;16.80;99.90;;;;;;5057824;28;20178;-78
2023/07/03 06:25:21;;;;;;;0.70;0.43;;;17.00;99.90;;;;;;5062265;28;20528;-77
2023/07/03 06:27:47;;;;;;;14.18;3.40;;;17.10;99.90;;;;;;5060376;28;20036;-77
2023/07/03 06:30:14;;;;;;;0.10;0.10;;;17.00;99.90;;;;;;5061600;28;20394;-77
2023/07/03 06:32:40;;;;;;;6.78;1.38;;;17.00;99.90;;;;;;5057314;28;20402;-78
2023/07/03 06:35:06;;;;;;;4.50;0.77;;;16.90;99.90;;;;;;5063899;28;20094;-78
2023/07/03 06:37:32;;;;;;;34.90;1.00;;;17.10;99.90;;;;;;5062710;28;20059;-77
2023/07/03 06:39:58;;;;;;;0.95;0.35;;;16.90;99.90;;;;;;5057568;28;20100;-76
2023/07/03 06:42:24;;;;;;;3.38;1.52;;;16.90;99.90;;;;;;5059875;28;20608;-77
2023/07/03 06:44:56;;;;;;;6.25;1.08;;;17.00;99.90;;;;;;5058459;28;20041;-78
2023/07/03 06:47:22;;;;;;;0.40;0.30;;;17.00;99.90;;;;;;5060880;28;20028;-78
2023/07/03 06:49:48;;;;;;;5.28;2.35;;;17.30;99.90;;;;;;5066379;28;20028;-77
2023/07/03 06:52:14;;;;;;;3.17;0.70;;;17.40;99.90;;;;;;5062381;28;20037;-77
2023/07/03 06:54:39;;;;;;;0.50;0.30;;;17.50;99.90;;;;;;5055204;28;20083;-77
2023/07/03 06:57:05;;;;;;;3.15;0.93;;;17.60;99.90;;;;;;5061344;28;20032;-78
2023/07/03 06:59:31;;;;;;;3.53;1.73;;;17.90;99.90;;;;;;5061499;28;20466;-77
2023/07/03 07:01:57;;;;;;;0.52;0.52;;;17.70;99.90;;;;;;5068814;28;20033;-78
2023/07/03 07:04:26;;;;;;;8.18;1.25;;;17.40;99.90;;;;;;5061138;28;20088;-78
2023/07/03 07:06:53;;;;;;;10.90;1.30;;;17.30;99.90;;;;;;5058482;28;20044;-77
2023/07/03 07:09:20;;;;;;;3.90;0.98;;;17.20;99.90;;;;;;5061696;28;20020;-77
2023/07/03 07:11:46;;;;;;;7.38;1.20;;;17.10;99.90;;;;;;5063788;28;20466;-77
2023/07/03 07:14:13;;;;;;;16.15;2.97;;;17.40;99.90;;;;;;5070205;28;20082;-77
2023/07/03 07:16:40;;;;;;;17.52;2.40;;;17.50;99.90;;;;;;5059856;28;20023;-78
2023/07/03 07:19:07;;;;;;;1.95;0.88;;;17.70;99.90;;;;;;5046270;28;20025;-77
2023/07/03 07:21:38;;;;;;;1.73;1.00;;;17.70;99.90;;;;;;5048968;28;20478;-77
2023/07/03 07:24:24;;;;;;;2.83;0.98;;;17.90;99.90;;;;;;5060809;28;20090;-77
2023/07/03 07:26:54;;;;;;;10.40;3.88;;;17.80;99.90;;;;;;5061130;28;20076;-77
2023/07/03 07:29:25;;;;;;;12.32;2.03;;;18.00;99.90;;;;;;5068284;28;20156;-77
2023/07/03 07:31:56;;;;;;;1.65;1.38;;;17.90;99.90;;;;;;5058680;28;20112;-77
2023/07/03 07:34:22;;;;;;;0.28;0.28;;;17.80;99.90;;;;;;5058231;28;20028;-77
2023/07/03 07:36:48;;;;;;;11.15;3.10;;;17.70;99.90;;;;;;5062077;28;20103;-77
2023/07/03 07:39:19;;;;;;;5.00;1.75;;;17.40;99.90;;;;;;5071247;28;20166;-77
2023/07/03 07:41:46;;;;;;;8.93;1.48;;;17.40;99.90;;;;;;5069940;28;20029;-77
2023/07/03 07:44:11;;;;;;;10.38;2.80;;;17.60;99.90;;;;;;5058857;28;20040;-77
2023/07/03 07:46:37;;;;;;;5.07;1.15;;;17.60;99.90;;;;;;5064620;28;20393;-77
2023/07/03 07:49:04;;;;;;;24.15;4.38;;;17.80;99.90;;;;;;5070191;28;20013;-77
2023/07/03 07:51:30;;;;;;;6.25;1.27;;;17.90;99.90;;;;;;5067894;28;20032;-77
2023/07/03 07:53:57;;;;;;;1.77;1.20;;;18.00;99.90;;;;;;5049632;28;20028;-77
2023/07/03 07:56:24;;;;;;;4.75;1.75;;;18.00;99.90;;;;;;5060952;28;20067;-77
2023/07/03 07:58:50;;;;;;;4.90;1.83;;;18.10;99.90;;;;;;5068058;28;20028;-76
2023/07/03 08:01:16;;;;;;;4.38;0.57;;;18.10;99.90;;;;;;5068935;28;20035;-77
2023/07/03 08:03:43;;;;;;;1.42;1.05;;;18.20;99.90;;;;;;5069705;28;20025;-77
2023/07/03 08:06:10;;;;;;;10.52;2.55;;;18.10;99.90;;;;;;5056644;28;20051;-78
2023/07/03 08:08:36;;;;;;;14.65;2.05;;;18.40;99.90;;;;;;5064479;28;20051;-77
2023/07/03 08:11:06;;;;;;;1.55;0.22;;;18.60;99.90;;;;;;5065438;28;20486;-77
2023/07/03 08:13:34;;;;;;;2.83;1.33;;;18.90;99.90;;;;;;5069665;28;20056;-78
2023/07/03 08:16:00;;;;;;;4.35;1.23;;;19.00;99.90;;;;;;5066761;28;20033;-78
2023/07/03 08:18:26;;;;;;;1.48;0.70;;;19.00;99.90;;;;;;5059539;28;20107;-78
2023/07/03 08:20:53;;;;;;;3.22;0.82;;;18.80;99.90;;;;;;5067210;28;20475;-78
2023/07/03 08:23:19;;;;;;;5.50;2.45;;;18.50;99.90;;;;;;5067869;28;20103;-78
2023/07/03 08:25:49;;;;;;;3.63;1.25;;;18.80;99.90;;;;;;5065630;28;20044;-78
2023/07/03 08:28:15;;;;;;;5.07;1.63;;;18.90;99.90;;;;;;5063018;28;20539;-77
2023/07/03 08:30:41;;;;;;;5.20;1.40;;;19.10;99.90;;;;;;5061438;28;20107;-77
2023/07/03 08:33:07;;;;;;;3.92;1.55;;;18.80;99.90;;;;;;5061633;28;20028;-78
2023/07/03 08:35:32;;;;;;;12.75;2.47;;;18.80;99.90;;;;;;5054016;28;20031;-77
2023/07/03 08:38:01;;;;;;;9.45;1.38;;;18.80;99.90;;;;;;5068587;28;20028;-77
2023/07/03 08:40:27;;;;;;;0.30;0.30;;;19.10;99.90;;;;;;5073308;28;20112;-77
2023/07/03 08:42:55;;;;;;;3.13;1.65;;;19.10;99.90;;;;;;5058503;28;20534;-77
2023/07/03 08:45:41;;;;;;;7.30;2.10;;;19.30;99.90;;;;;;5059523;28;20115;-77
2023/07/03 08:48:14;;;;;;;9.75;2.47;;;19.10;99.90;;;;;;5066029;28;20491;-76
2023/07/03 08:50:45;;;;;;;5.95;2.30;;;18.50;99.90;;;;;;5071576;28;20461;-76
2023/07/03 08:53:15;;;;;;;6.43;1.80;;;18.40;99.90;;;;;;5058254;28;20050;-77
2023/07/03 08:55:47;;;;;;;8.70;1.05;;;18.60;99.90;;;;;;5058458;28;20449;-77
2023/07/03 08:58:13;;;;;;;0.70;0.30;;;18.80;99.90;;;;;;5063649;28;20448;-78
2023/07/03 09:00:50;;;;;;;3.40;2.10;;;19.20;99.80;;;;;;5069781;28;20038;-77
2023/07/03 09:03:51;;;;;;;10.25;3.35;;;19.30;99.60;;;;;;5070892;28;20481;-77
2023/07/03 09:06:50;;;;;;;1.77;0.88;;;19.50;99.30;;;;;;5014201;28;20053;-76
2023/07/03 09:09:25;;;;;;;2.10;0.93;;;20.00;99.30;;;;;;5059548;28;20025;-77
2023/07/03 09:12:08;;;;;;;5.88;2.65;;;20.10;96.90;;;;;;5065491;28;20043;-76
2023/07/03 09:14:48;;;;;;;11.63;1.52;;;20.30;97.70;;;;;;5072678;28;20070;-74
2023/07/03 09:17:14;;;;;;;4.40;0.70;;;20.20;96.90;;;;;;5059336;28;20036;-77
2023/07/03 09:19:44;;;;;;;2.47;1.35;;;19.70;96.80;;;;;;5059988;28;20024;-77
2023/07/03 09:22:31;;;;;;;4.47;1.55;;;19.20;97.50;;;;;;5061990;28;20021;-77
2023/07/03 09:25:01;;;;;;;9.55;0.47;;;19.30;96.50;;;;;;5056708;28;20107;-77
2023/07/03 09:27:28;;;;;;;0.63;0.63;;;19.50;97.70;;;;;;5067572;28;20119;-78
2023/07/03 09:30:01;;;;;;;8.20;0.55;;;19.50;98.00;;;;;;5066889;28;20493;-77
2023/07/03 09:32:29;;;;;;;8.30;0.85;;;19.80;97.60;;;;;;5056707;28;20025;-78
2023/07/03 09:35:15;;;;;;;1.63;0.70;;;19.50;97.40;;;;;;5058338;28;20036;-76
2023/07/03 09:37:47;;;;;;;0.88;0.43;;;19.40;97.40;;;;;;5060857;28;20469;-77
2023/07/03 09:40:25;;;;;;;0.65;0.63;;;19.80;97.10;;;;;;5071999;28;20039;-75
2023/07/03 09:42:52;;;;;;;12.40;1.23;;;20.00;96.50;;;;;;5060208;28;20037;-77
2023/07/03 09:45:20;;;;;;;1.55;0.80;;;20.30;95.40;;;;;;5059095;28;20064;-76
2023/07/03 09:47:49;;;;;;;2.40;0.60;;;20.30;94.60;;;;;;5062410;28;20116;-76
2023/07/03 09:50:20;;;;;;;2.42;0.88;;;20.10;94.40;;;;;;5070304;28;20110;-76
2023/07/03 09:52:47;;;;;;;2.40;1.15;;;19.90;94.50;;;;;;5058138;28;20473;-77
2023/07/03 09:55:16;;;;;;;2.05;1.10;;;19.70;95.20;;;;;;5059837;28;20023;-76
2023/07/03 09:57:43;;;;;;;12.10;1.15;;;19.80;95.70;;;;;;5060231;28;20469;-77
2023/07/03 10:00:16;;;;;;;5.53;1.35;;;20.10;95.20;;;;;;5066119;28;20274;-76
2023/07/03 10:02:43;;;;;;;2.55;1.17;;;19.80;95.40;;;;;;5069425;28;20024;-77
2023/07/03 10:05:21;;;;;;;2.05;0.50;;;20.10;95.60;;;;;;5058850;28;20035;-79
2023/07/03 10:07:48;;;;;;;3.53;0.77;;;20.00;95.50;;;;;;5058269;28;20029;-80
2023/07/03 10:10:19;;;;;;;3.53;1.20;;;20.40;94.70;;;;;;5063701;28;20115;-80
2023/07/03 10:13:12;;;;;;;2.90;1.30;;;19.80;95.90;;;;;;5069124;28;20024;-80
2023/07/03 10:15:40;;;;;;;3.10;1.30;;;19.70;96.80;;;;;;5066857;28;20052;-79
2023/07/03 10:18:16;;;;;;;6.43;0.57;;;19.60;96.20;;;;;;5056125;28;20478;-81
2023/07/03 10:20:45;;;;;;;2.25;0.70;;;19.90;96.30;;;;;;5063152;28;20028;-79
2023/07/03 10:23:40;;;;;;;3.72;0.85;;;19.50;96.00;;;;;;5066151;28;20047;-80
2023/07/03 10:26:18;;;;;;;2.25;1.05;;;19.20;97.10;;;;;;5065754;28;20048;-80
2023/07/03 10:28:48;;;;;;;0.40;0.40;;;19.30;97.60;;;;;;5069729;28;20405;-80
2023/07/03 10:31:33;;;;;;;2.83;0.82;;;19.50;97.10;;;;;;5056254;28;20052;-78
2023/07/03 10:34:12;;;;;;;2.28;0.63;;;19.30;97.50;;;;;;5057681;28;20060;-78
2023/07/03 10:36:40;;;;;;;0.00;0.00;;;19.30;98.30;;;;;;5056244;28;20036;-79
2023/07/03 10:39:22;;;;;;;0.25;0.20;;;19.50;98.30;;;;;;5068334;28;20362;-79
2023/07/03 10:41:53;;;;;;;3.03;1.20;;;19.30;98.70;;;;;;5041099;28;20037;-79
2023/07/03 10:44:27;;;;;;;2.70;0.83;;;19.30;99.00;;;;;;5055810;28;20469;-78
2023/07/03 10:47:38;;;;;;;2.28;1.02;;;19.30;99.80;;;;;;5056100;28;20421;-80
2023/07/03 10:50:05;;;;;;;2.40;0.43;;;20.10;98.30;;;;;;5042278;28;20044;-79
2023/07/03 10:52:38;;;;;;;7.95;1.25;;;20.10;98.10;;;;;;5060270;28;20041;-79
2023/07/03 10:55:23;;;;;;;1.38;1.02;;;19.80;98.00;;;;;;5055578;28;20035;-79
2023/07/03 10:58:14;;;;;;;0.30;0.20;;;19.80;98.90;;;;;;5052075;28;20021;-79
2023/07/03 11:01:14;;;;;;;4.03;1.60;;;20.30;97.90;;;;;;5053219;28;20024;-78
2023/07/03 11:03:53;;;;;;;1.85;0.63;;;19.60;98.90;;;;;;5056609;28;20052;-79
2023/07/03 11:06:29;;;;;;;17.05;2.75;;;19.50;97.80;;;;;;5050697;28;20489;-79
2023/07/03 11:09:08;;;;;;;9.23;1.52;;;19.60;96.70;;;;;;5033958;28;20029;-79
2023/07/03 11:12:11;;;;;;;8.80;0.63;;;19.60;96.70;;;;;;5050469;28;20032;-80
2023/07/03 11:14:54;;;;;;;14.70;1.65;;;19.70;96.90;;;;;;5050782;28;20025;-79
2023/07/03 11:17:26;;;;;;;0.10;0.10;;;20.20;96.30;;;;;;5047915;28;20037;-79
2023/07/03 11:20:06;;;;;;;1.27;1.20;;;20.10;96.70;;;;;;5037198;28;20548;-80
2023/07/03 11:22:44;;;;;;;0.43;0.28;;;19.90;97.00;;;;;;5039237;28;20029;-80
2023/07/03 11:25:32;;;;;;;1.77;0.43;;;19.90;97.10;;;;;;5050372;28;20041;-79
2023/07/03 11:28:27;;;;;;;1.45;0.80;;;20.00;97.00;;;;;;5052181;28;20030;-79
2023/07/03 11:30:54;;;;;;;7.53;0.98;;;20.20;97.30;;;;;;5037332;28;20073;-80
2023/07/03 11:33:21;;;;;;;7.03;0.80;;;20.40;96.40;;;;;;5048451;28;20513;-80
2023/07/03 11:35:55;;;;;;;0.57;0.13;;;20.00;96.80;;;;;;5037905;28;20025;-79
2023/07/03 11:38:21;;;;;;;1.65;1.02;;;19.70;97.90;;;;;;5052189;28;20470;-80
2023/07/03 11:40:57;;;;;;;22.45;1.70;;;20.20;97.70;;;;;;5050990;28;20037;-80
2023/07/03 11:43:42;;;;;;;1.95;0.35;;;20.30;97.20;;;;;;5033598;28;20030;-79
2023/07/03 11:46:24;;;;;;;0.10;0.10;;;20.60;96.80;;;;;;5040893;28;20379;-80
2023/07/03 11:48:55;;;;;;;1.45;0.50;;;21.10;95.50;;;;;;5045291;28;20040;-80
2023/07/03 11:51:32;;;;;;;;;;;21.40;94.40;;;;;;5035042;28;20037;-80
2023/07/03 11:53:59;;;;;;;11.20;0.20;;;21.40;94.20;;;;;;5050017;28;19916;-79
2023/07/03 11:56:30;;;;;;;9.45;1.15;;;21.20;94.30;;;;;;5051540;28;20029;-81
2023/07/03 11:59:30;;;;;;;2.50;1.00;;;20.60;92.90;;;;;;5050424;28;20064;-80
2023/07/03 12:02:10;;;;;;;3.58;1.30;;;20.10;93.40;;;;;;5005644;28;20500;-80
2023/07/03 12:04:42;;;;;;;4.97;0.82;;;20.10;93.30;;;;;;5050786;28;20028;-80
2023/07/03 12:07:08;;;;;;;;;;;20.30;93.80;;;;;;5051295;28;20029;-80
2023/07/03 12:09:34;;;;;;;1.25;0.85;;;20.40;93.80;;;;;;5048476;28;19916;-80
2023/07/03 12:12:00;;;;;;;3.03;1.13;;;21.00;93.70;;;;;;5042830;28;20025;-81
2023/07/03 12:14:52;;;;;;;8.75;1.48;;;21.20;93.50;;;;;;5044967;28;20030;-82
2023/07/03 12:17:25;;;;;;;3.92;1.65;;;20.60;93.20;;;;;;5050472;28;20136;-80
2023/07/03 12:20:11;;;;;;;1.70;0.28;;;20.20;94.30;;;;;;5047232;28;20053;-79
2023/07/03 12:22:49;;;;;;;0.28;0.10;;;20.20;94.40;;;;;;5053739;28;20025;-81
2023/07/03 12:25:27;;;;;;;0.13;0.13;;;20.10;94.50;;;;;;5054070;28;20045;-80
2023/07/03 12:27:55;;;;;;;1.27;0.50;;;20.10;95.20;;;;;;5053749;28;20036;-81
2023/07/03 12:30:28;;;;;;;0.68;0.40;;;20.70;94.60;;;;;;5044681;28;20104;-81
2023/07/03 12:32:55;;;;;;;5.65;0.88;;;21.30;93.60;;;;;;5048329;28;20151;-80
2023/07/03 12:35:27;;;;;;;0.35;0.28;;;21.20;93.30;;;;;;5053463;28;20116;-81
2023/07/03 12:37:58;;;;;;;2.63;0.80;;;21.30;93.70;;;;;;5054364;28;20029;-81
2023/07/03 12:40:25;;;;;;;0.50;0.47;;;21.90;94.20;;;;;;5044095;28;20512;-80
2023/07/03 12:42:53;;;;;;;0.38;0.32;;;21.30;93.50;;;;;;5048648;28;20363;-81
2023/07/03 12:45:20;;;;;;;3.53;0.77;;;21.30;93.60;;;;;;5037634;28;20081;-80
2023/07/03 12:48:06;;;;;;;3.35;0.75;;;21.30;93.90;;;;;;5048756;28;20040;-80
2023/07/03 12:50:35;;;;;;;0.85;0.22;;;21.30;94.00;;;;;;5045801;28;20351;-81
2023/07/03 12:53:04;;;;;;;0.47;0.40;;;21.50;93.80;;;;;;5038774;28;20033;-81
2023/07/03 12:55:34;;;;;;;1.20;0.73;;;21.70;93.50;;;;;;5053531;28;20036;-80
2023/07/03 12:58:00;;;;;;;0.10;0.10;;;21.90;93.00;;;;;;5053829;28;20490;-80
2023/07/03 13:00:33;;;;;;;3.45;0.95;;;22.10;92.50;;;;;;5053676;28;20044;-80